sensor_id;sensor_type;location;lat;lon;timestamp;pressure;altitude;pressure_sealevel;temperature;humidity
31538;BME280;18147;51.952;6.146;2022-09-19T00:00:41;101586.06;;;8.95;100.00
31538;BME280;18147;51.952;6.146;2022-09-19T00:03:08;101587.66;;;8.99;100.00
31538;BME280;18147;51.952;6.146;2022-09-19T00:05:38;101586.16;;;9.13;100.00
31538;BME280;18147;51.952;6.146;2022-09-19T00:08:04;101590.34;;;8.99;100.00
31538;BME280;18147;51.952;6.146;2022-09-19T00:10:29;101585.78;;;9.01;100.00
31538;BME280;18147;51.952;6.146;2022-09-19T00:12:54;101586.00;;;8.97;100.00
31538;BME280;18147;51.952;6.146;2022-09-19T00:15:21;101588.72;;;8.95;100.00
31538;BME280;18147;51.952;6.146;2022-09-19T00:17:49;101587.22;;;8.90;100.00
31538;BME280;18147;51.952;6.146;2022-09-19T00:20:15;101587.47;;;9.04;100.00
31538;BME280;18147;51.952;6.146;2022-09-19T00:22:41;101587.66;;;8.99;100.00
31538;BME280;18147;51.952;6.146;2022-09-19T00:25:26;101595.38;;;9.05;100.00
31538;BME280;18147;51.952;6.146;2022-09-19T00:27:54;101592.72;;;9.05;100.00
31538;BME280;18147;51.952;6.146;2022-09-19T00:30:20;101592.63;;;9.07;100.00
31538;BME280;18147;51.952;6.146;2022-09-19T00:32:45;101587.03;;;9.13;100.00
31538;BME280;18147;51.952;6.146;2022-09-19T00:35:12;101594.97;;;9.15;100.00
31538;BME280;18147;51.952;6.146;2022-09-19T00:37:39;101597.66;;;9.13;100.00
31538;BME280;18147;51.952;6.146;2022-09-19T00:40:04;101600.50;;;9.10;100.00
31538;BME280;18147;51.952;6.146;2022-09-19T00:42:30;101607.72;;;9.06;100.00
31538;BME280;18147;51.952;6.146;2022-09-19T00:45:04;101603.44;;;9.04;100.00
31538;BME280;18147;51.952;6.146;2022-09-19T00:47:36;101607.00;;;9.03;100.00
31538;BME280;18147;51.952;6.146;2022-09-19T00:50:07;101597.94;;;9.07;100.00
31538;BME280;18147;51.952;6.146;2022-09-19T00:52:41;101605.06;;;9.06;100.00
31538;BME280;18147;51.952;6.146;2022-09-19T00:55:07;101608.38;;;9.12;100.00
31538;BME280;18147;51.952;6.146;2022-09-19T00:57:45;101607.19;;;9.19;100.00
31538;BME280;18147;51.952;6.146;2022-09-19T01:00:12;101617.88;;;9.17;100.00
31538;BME280;18147;51.952;6.146;2022-09-19T01:02:38;101616.03;;;9.19;100.00
31538;BME280;18147;51.952;6.146;2022-09-19T01:05:04;101618.69;;;9.19;100.00
31538;BME280;18147;51.952;6.146;2022-09-19T01:10:25;101621.09;;;9.25;100.00
31538;BME280;18147;51.952;6.146;2022-09-19T01:13:21;101615.69;;;9.27;100.00
31538;BME280;18147;51.952;6.146;2022-09-19T01:16:04;101620.34;;;9.22;100.00
31538;BME280;18147;51.952;6.146;2022-09-19T01:18:50;101625.66;;;9.22;100.00
31538;BME280;18147;51.952;6.146;2022-09-19T01:27:05;101629.97;;;9.45;100.00
31538;BME280;18147;51.952;6.146;2022-09-19T01:32:28;101635.31;;;9.43;100.00
31538;BME280;18147;51.952;6.146;2022-09-19T01:34:58;101634.56;;;9.41;100.00
31538;BME280;18147;51.952;6.146;2022-09-19T01:37:34;101632.53;;;9.46;100.00
31538;BME280;18147;51.952;6.146;2022-09-19T01:40:03;101638.84;;;9.44;100.00
31538;BME280;18147;51.952;6.146;2022-09-19T01:42:33;101636.56;;;9.36;100.00
31538;BME280;18147;51.952;6.146;2022-09-19T01:44:59;101642.16;;;9.30;100.00
31538;BME280;18147;51.952;6.146;2022-09-19T01:47:48;101642.09;;;9.31;100.00
31538;BME280;18147;51.952;6.146;2022-09-19T01:50:58;101643.22;;;9.26;100.00
31538;BME280;18147;51.952;6.146;2022-09-19T01:53:41;101642.44;;;9.24;100.00
31538;BME280;18147;51.952;6.146;2022-09-19T01:57:05;101642.56;;;9.21;100.00
31538;BME280;18147;51.952;6.146;2022-09-19T02:00:01;101641.78;;;9.19;100.00
31538;BME280;18147;51.952;6.146;2022-09-19T02:08:41;101642.91;;;9.13;100.00
31538;BME280;18147;51.952;6.146;2022-09-19T02:10:53;101650.09;;;9.11;100.00
31538;BME280;18147;51.952;6.146;2022-09-19T02:13:26;101644.78;;;9.11;100.00
31538;BME280;18147;51.952;6.146;2022-09-19T02:16:12;101646.78;;;9.06;100.00
31538;BME280;18147;51.952;6.146;2022-09-19T02:18:45;101643.19;;;9.07;100.00
31538;BME280;18147;51.952;6.146;2022-09-19T02:21:19;101644.00;;;9.09;100.00
31538;BME280;18147;51.952;6.146;2022-09-19T02:23:50;101647.44;;;9.11;100.00
31538;BME280;18147;51.952;6.146;2022-09-19T02:26:20;101644.03;;;9.07;100.00
31538;BME280;18147;51.952;6.146;2022-09-19T02:28:56;101641.47;;;9.06;100.00
31538;BME280;18147;51.952;6.146;2022-09-19T02:31:25;101654.88;;;9.03;100.00
31538;BME280;18147;51.952;6.146;2022-09-19T02:33:54;101653.22;;;9.00;100.00
31538;BME280;18147;51.952;6.146;2022-09-19T02:36:25;101651.84;;;8.92;100.00
31538;BME280;18147;51.952;6.146;2022-09-19T02:39:05;101656.16;;;9.15;100.00
31538;BME280;18147;51.952;6.146;2022-09-19T02:42:06;101652.75;;;9.11;100.00
31538;BME280;18147;51.952;6.146;2022-09-19T02:45:01;101658.63;;;9.19;100.00
31538;BME280;18147;51.952;6.146;2022-09-19T02:47:51;101655.59;;;9.27;100.00
31538;BME280;18147;51.952;6.146;2022-09-19T02:50:35;101656.53;;;9.26;100.00
31538;BME280;18147;51.952;6.146;2022-09-19T02:53:09;101653.41;;;9.16;100.00
31538;BME280;18147;51.952;6.146;2022-09-19T02:55:46;101651.63;;;9.17;100.00
31538;BME280;18147;51.952;6.146;2022-09-19T02:58:15;101661.47;;;9.15;100.00
31538;BME280;18147;51.952;6.146;2022-09-19T03:00:48;101665.50;;;9.23;100.00
31538;BME280;18147;51.952;6.146;2022-09-19T03:03:31;101660.13;;;9.25;100.00
31538;BME280;18147;51.952;6.146;2022-09-19T03:06:18;101661.06;;;9.24;100.00
31538;BME280;18147;51.952;6.146;2022-09-19T03:08:48;101654.16;;;9.20;100.00
31538;BME280;18147;51.952;6.146;2022-09-19T03:11:18;101664.06;;;9.16;100.00
31538;BME280;18147;51.952;6.146;2022-09-19T03:13:45;101655.03;;;9.20;100.00
31538;BME280;18147;51.952;6.146;2022-09-19T03:16:19;101656.16;;;9.15;100.00
31538;BME280;18147;51.952;6.146;2022-09-19T03:18:47;101654.47;;;9.12;100.00
31538;BME280;18147;51.952;6.146;2022-09-19T03:21:19;101660.25;;;9.22;100.00
31538;BME280;18147;51.952;6.146;2022-09-19T03:23:50;101659.69;;;9.15;100.00
31538;BME280;18147;51.952;6.146;2022-09-19T03:26:24;101658.81;;;9.15;100.00
31538;BME280;18147;51.952;6.146;2022-09-19T03:28:55;101669.50;;;9.13;100.00
31538;BME280;18147;51.952;6.146;2022-09-19T03:31:23;101659.53;;;9.18;100.00
31538;BME280;18147;51.952;6.146;2022-09-19T03:33:49;101669.31;;;9.18;100.00
31538;BME280;18147;51.952;6.146;2022-09-19T03:36:17;101669.72;;;9.08;100.00
31538;BME280;18147;51.952;6.146;2022-09-19T03:38:44;101669.88;;;9.05;100.00
31538;BME280;18147;51.952;6.146;2022-09-19T03:41:13;101671.47;;;9.10;100.00
31538;BME280;18147;51.952;6.146;2022-09-19T03:43:41;101672.13;;;9.15;100.00
31538;BME280;18147;51.952;6.146;2022-09-19T03:46:13;101673.09;;;9.12;100.00
31538;BME280;18147;51.952;6.146;2022-09-19T03:48:42;101673.19;;;9.11;100.00
31538;BME280;18147;51.952;6.146;2022-09-19T03:51:13;101680.59;;;9.04;100.00
31538;BME280;18147;51.952;6.146;2022-09-19T03:53:39;101678.78;;;9.04;100.00
31538;BME280;18147;51.952;6.146;2022-09-19T03:56:08;101680.81;;;8.98;100.00
31538;BME280;18147;51.952;6.146;2022-09-19T03:58:36;101683.25;;;9.04;100.00
31538;BME280;18147;51.952;6.146;2022-09-19T04:01:03;101681.56;;;9.01;100.00
31538;BME280;18147;51.952;6.146;2022-09-19T04:03:30;101680.81;;;8.98;100.00
31538;BME280;18147;51.952;6.146;2022-09-19T04:05:56;101679.09;;;8.97;100.00
31538;BME280;18147;51.952;6.146;2022-09-19T04:08:22;101683.91;;;8.89;100.00
31538;BME280;18147;51.952;6.146;2022-09-19T04:10:48;101691.88;;;8.89;100.00
31538;BME280;18147;51.952;6.146;2022-09-19T04:13:14;101689.75;;;8.97;100.00
31538;BME280;18147;51.952;6.146;2022-09-19T04:15:41;101685.63;;;8.90;100.00
31538;BME280;18147;51.952;6.146;2022-09-19T04:18:09;101685.06;;;8.81;100.00
31538;BME280;18147;51.952;6.146;2022-09-19T04:20:35;101694.19;;;8.76;100.00
31538;BME280;18147;51.952;6.146;2022-09-19T04:23:36;101697.59;;;8.79;100.00
31538;BME280;18147;51.952;6.146;2022-09-19T04:26:12;101697.44;;;8.82;100.00
31538;BME280;18147;51.952;6.146;2022-09-19T04:28:40;101693.88;;;8.84;100.00
31538;BME280;18147;51.952;6.146;2022-09-19T04:31:08;101694.66;;;8.86;100.00
31538;BME280;18147;51.952;6.146;2022-09-19T04:33:36;101702.38;;;8.92;100.00
31538;BME280;18147;51.952;6.146;2022-09-19T04:36:03;101702.56;;;8.87;100.00
31538;BME280;18147;51.952;6.146;2022-09-19T04:38:32;101701.38;;;8.94;100.00
31538;BME280;18147;51.952;6.146;2022-09-19T04:40:59;101705.44;;;9.03;100.00
31538;BME280;18147;51.952;6.146;2022-09-19T04:43:28;101716.34;;;9.17;100.00
31538;BME280;18147;51.952;6.146;2022-09-19T04:46:01;101712.63;;;9.21;100.00
31538;BME280;18147;51.952;6.146;2022-09-19T04:48:33;101714.63;;;9.16;100.00
31538;BME280;18147;51.952;6.146;2022-09-19T04:50:59;101720.13;;;9.12;100.00
31538;BME280;18147;51.952;6.146;2022-09-19T04:53:25;101716.81;;;9.06;100.00
31538;BME280;18147;51.952;6.146;2022-09-19T04:55:55;101716.31;;;9.19;100.00
31538;BME280;18147;51.952;6.146;2022-09-19T04:58:21;101722.91;;;9.08;100.00
31538;BME280;18147;51.952;6.146;2022-09-19T05:00:51;101723.47;;;9.17;100.00
31538;BME280;18147;51.952;6.146;2022-09-19T05:03:19;101724.41;;;9.36;100.00
31538;BME280;18147;51.952;6.146;2022-09-19T05:05:47;101726.94;;;9.39;100.00
31538;BME280;18147;51.952;6.146;2022-09-19T05:08:22;101715.28;;;9.42;100.00
31538;BME280;18147;51.952;6.146;2022-09-19T05:10:53;101725.72;;;9.46;100.00
31538;BME280;18147;51.952;6.146;2022-09-19T05:13:26;101728.66;;;9.40;100.00
31538;BME280;18147;51.952;6.146;2022-09-19T05:15:53;101725.06;;;9.41;100.00
31538;BME280;18147;51.952;6.146;2022-09-19T05:18:20;101725.84;;;9.43;100.00
31538;BME280;18147;51.952;6.146;2022-09-19T05:20:52;101735.59;;;9.44;100.00
31538;BME280;18147;51.952;6.146;2022-09-19T05:23:19;101726.56;;;9.47;100.00
31538;BME280;18147;51.952;6.146;2022-09-19T05:25:44;101734.50;;;9.48;100.00
31538;BME280;18147;51.952;6.146;2022-09-19T05:28:10;101735.22;;;9.52;100.00
31538;BME280;18147;51.952;6.146;2022-09-19T05:30:39;101738.34;;;9.62;100.00
31538;BME280;18147;51.952;6.146;2022-09-19T05:33:10;101736.91;;;9.54;100.00
31538;BME280;18147;51.952;6.146;2022-09-19T05:35:40;101741.66;;;9.67;100.00
31538;BME280;18147;51.952;6.146;2022-09-19T05:38:22;101748.09;;;9.81;100.00
31538;BME280;18147;51.952;6.146;2022-09-19T05:40:58;101747.81;;;9.88;100.00
31538;BME280;18147;51.952;6.146;2022-09-19T05:43:49;101741.78;;;9.84;100.00
31538;BME280;18147;51.952;6.146;2022-09-19T05:46:15;101753.78;;;9.93;100.00
31538;BME280;18147;51.952;6.146;2022-09-19T05:48:47;101757.41;;;10.10;100.00
31538;BME280;18147;51.952;6.146;2022-09-19T05:51:12;101758.84;;;10.18;100.00
31538;BME280;18147;51.952;6.146;2022-09-19T05:53:37;101757.19;;;10.34;100.00
31538;BME280;18147;51.952;6.146;2022-09-19T05:56:39;101750.56;;;10.43;100.00
31538;BME280;18147;51.952;6.146;2022-09-19T05:59:07;101752.28;;;10.44;100.00
31538;BME280;18147;51.952;6.146;2022-09-19T06:01:35;101748.88;;;10.59;100.00
31538;BME280;18147;51.952;6.146;2022-09-19T06:04:04;101751.19;;;10.67;100.00
31538;BME280;18147;51.952;6.146;2022-09-19T06:06:35;101756.84;;;10.78;100.00
31538;BME280;18147;51.952;6.146;2022-09-19T06:09:02;101758.13;;;10.88;100.00
31538;BME280;18147;51.952;6.146;2022-09-19T06:11:32;101770.25;;;10.95;100.00
31538;BME280;18147;51.952;6.146;2022-09-19T06:13:58;101769.28;;;10.96;100.00
31538;BME280;18147;51.952;6.146;2022-09-19T06:16:49;101779.09;;;10.96;100.00
31538;BME280;18147;51.952;6.146;2022-09-19T06:19:33;101774.78;;;10.93;100.00
31538;BME280;18147;51.952;6.146;2022-09-19T06:22:11;101785.75;;;11.04;100.00
31538;BME280;18147;51.952;6.146;2022-09-19T06:24:39;101780.19;;;11.09;100.00
31538;BME280;18147;51.952;6.146;2022-09-19T06:27:06;101787.19;;;11.11;100.00
31538;BME280;18147;51.952;6.146;2022-09-19T06:29:33;101786.63;;;11.39;100.00
31538;BME280;18147;51.952;6.146;2022-09-19T06:32:18;101790.63;;;11.83;100.00
31538;BME280;18147;51.952;6.146;2022-09-19T06:34:46;101797.69;;;12.01;100.00
31538;BME280;18147;51.952;6.146;2022-09-19T06:37:12;101796.84;;;12.16;100.00
31538;BME280;18147;51.952;6.146;2022-09-19T06:39:38;101803.75;;;12.21;100.00
31538;BME280;18147;51.952;6.146;2022-09-19T06:42:25;101803.78;;;12.36;100.00
31538;BME280;18147;51.952;6.146;2022-09-19T06:45:27;101804.38;;;12.41;100.00
31538;BME280;18147;51.952;6.146;2022-09-19T06:47:59;101814.63;;;12.33;100.00
31538;BME280;18147;51.952;6.146;2022-09-19T06:50:48;101810.72;;;12.23;100.00
31538;BME280;18147;51.952;6.146;2022-09-19T06:53:16;101815.91;;;12.10;100.00
31538;BME280;18147;51.952;6.146;2022-09-19T06:55:43;101816.28;;;12.20;100.00
31538;BME280;18147;51.952;6.146;2022-09-19T06:58:14;101816.53;;;12.31;100.00
31538;BME280;18147;51.952;6.146;2022-09-19T07:00:41;101818.88;;;12.53;100.00
31538;BME280;18147;51.952;6.146;2022-09-19T07:03:12;101821.94;;;12.30;100.00
31538;BME280;18147;51.952;6.146;2022-09-19T07:05:44;101832.66;;;12.30;100.00
31538;BME280;18147;51.952;6.146;2022-09-19T07:08:23;101835.06;;;12.34;100.00
31538;BME280;18147;51.952;6.146;2022-09-19T07:10:51;101840.03;;;12.58;100.00
31538;BME280;18147;51.952;6.146;2022-09-19T07:13:17;101840.47;;;12.50;100.00
31538;BME280;18147;51.952;6.146;2022-09-19T07:15:49;101842.53;;;12.61;100.00
31538;BME280;18147;51.952;6.146;2022-09-19T07:18:15;101843.06;;;12.67;100.00
31538;BME280;18147;51.952;6.146;2022-09-19T07:20:43;101843.56;;;12.74;100.00
31538;BME280;18147;51.952;6.146;2022-09-19T07:23:18;101850.81;;;12.72;100.00
31538;BME280;18147;51.952;6.146;2022-09-19T07:25:57;101861.38;;;12.75;100.00
31538;BME280;18147;51.952;6.146;2022-09-19T07:28:23;101857.47;;;12.96;100.00
31538;BME280;18147;51.952;6.146;2022-09-19T07:30:51;101854.94;;;12.93;100.00
31538;BME280;18147;51.952;6.146;2022-09-19T07:33:18;101860.91;;;12.99;100.00
31538;BME280;18147;51.952;6.146;2022-09-19T07:35:49;101858.03;;;13.33;100.00
31538;BME280;18147;51.952;6.146;2022-09-19T07:38:18;101857.66;;;13.39;100.00
31538;BME280;18147;51.952;6.146;2022-09-19T07:41:00;101860.28;;;13.25;100.00
31538;BME280;18147;51.952;6.146;2022-09-19T07:43:30;101860.44;;;13.38;100.00
31538;BME280;18147;51.952;6.146;2022-09-19T07:46:11;101854.06;;;13.70;100.00
31538;BME280;18147;51.952;6.146;2022-09-19T07:48:59;101847.09;;;13.52;100.00
31538;BME280;18147;51.952;6.146;2022-09-19T07:51:43;101858.50;;;13.56;100.00
31538;BME280;18147;51.952;6.146;2022-09-19T07:54:08;101867.09;;;13.46;100.00
31538;BME280;18147;51.952;6.146;2022-09-19T07:56:34;101863.78;;;13.57;100.00
31538;BME280;18147;51.952;6.146;2022-09-19T07:59:00;101870.00;;;13.58;100.00
31538;BME280;18147;51.952;6.146;2022-09-19T08:01:35;101868.38;;;13.69;100.00
31538;BME280;18147;51.952;6.146;2022-09-19T08:04:07;101877.88;;;13.61;100.00
31538;BME280;18147;51.952;6.146;2022-09-19T08:06:55;101877.38;;;13.68;100.00
31538;BME280;18147;51.952;6.146;2022-09-19T08:09:20;101881.31;;;13.63;100.00
31538;BME280;18147;51.952;6.146;2022-09-19T08:12:06;101885.84;;;13.46;100.00
31538;BME280;18147;51.952;6.146;2022-09-19T08:14:37;101880.53;;;13.61;100.00
31538;BME280;18147;51.952;6.146;2022-09-19T08:17:03;101889.00;;;13.83;100.00
31538;BME280;18147;51.952;6.146;2022-09-19T08:19:29;101890.34;;;13.90;100.00
31538;BME280;18147;51.952;6.146;2022-09-19T08:21:56;101879.97;;;13.70;100.00
31538;BME280;18147;51.952;6.146;2022-09-19T08:24:21;101892.47;;;13.99;100.00
31538;BME280;18147;51.952;6.146;2022-09-19T08:26:50;101895.66;;;14.20;100.00
31538;BME280;18147;51.952;6.146;2022-09-19T08:29:16;101899.44;;;14.32;100.00
31538;BME280;18147;51.952;6.146;2022-09-19T08:31:51;101897.25;;;14.53;100.00
31538;BME280;18147;51.952;6.146;2022-09-19T08:34:16;101901.78;;;14.94;100.00
31538;BME280;18147;51.952;6.146;2022-09-19T08:36:43;101891.47;;;15.15;100.00
31538;BME280;18147;51.952;6.146;2022-09-19T08:39:08;101888.88;;;15.40;100.00
31538;BME280;18147;51.952;6.146;2022-09-19T08:41:54;101896.63;;;15.45;100.00
31538;BME280;18147;51.952;6.146;2022-09-19T08:44:31;101891.25;;;15.45;100.00
31538;BME280;18147;51.952;6.146;2022-09-19T08:47:09;101905.38;;;15.48;99.74
31538;BME280;18147;51.952;6.146;2022-09-19T08:49:49;101898.38;;;15.19;100.00
31538;BME280;18147;51.952;6.146;2022-09-19T08:54:57;101900.59;;;15.12;100.00
31538;BME280;18147;51.952;6.146;2022-09-19T08:57:39;101897.09;;;15.51;100.00
31538;BME280;18147;51.952;6.146;2022-09-19T09:00:19;101888.03;;;15.79;100.00
31538;BME280;18147;51.952;6.146;2022-09-19T09:03:00;101890.53;;;15.83;100.00
31538;BME280;18147;51.952;6.146;2022-09-19T09:11:34;101899.69;;;16.05;96.70
31538;BME280;18147;51.952;6.146;2022-09-19T09:14:30;101901.94;;;15.99;98.12
31538;BME280;18147;51.952;6.146;2022-09-19T09:17:29;101903.03;;;16.22;95.76
31538;BME280;18147;51.952;6.146;2022-09-19T09:20:20;101900.22;;;16.36;94.23
31538;BME280;18147;51.952;6.146;2022-09-19T09:23:13;101897.72;;;16.46;91.20
31538;BME280;18147;51.952;6.146;2022-09-19T09:26:08;101896.88;;;16.45;92.45
31538;BME280;18147;51.952;6.146;2022-09-19T09:28:53;101900.75;;;16.41;94.21
31538;BME280;18147;51.952;6.146;2022-09-19T09:32:11;101893.22;;;17.08;86.44
31538;BME280;18147;51.952;6.146;2022-09-19T09:34:54;101892.28;;;17.45;83.68
31538;BME280;18147;51.952;6.146;2022-09-19T09:37:26;101894.56;;;17.86;84.50
31538;BME280;18147;51.952;6.146;2022-09-19T09:45:31;101966.41;;;12.63;100.00
31538;BME280;18147;51.952;6.146;2022-09-19T09:48:15;101950.72;;;11.70;100.00
31538;BME280;18147;51.952;6.146;2022-09-19T09:56:15;101940.56;;;12.46;100.00
31538;BME280;18147;51.952;6.146;2022-09-19T10:01:56;101933.28;;;12.97;100.00
31538;BME280;18147;51.952;6.146;2022-09-19T10:05:00;101934.50;;;13.39;100.00
31538;BME280;18147;51.952;6.146;2022-09-19T10:07:33;101932.31;;;13.61;100.00
31538;BME280;18147;51.952;6.146;2022-09-19T10:10:09;101934.31;;;13.58;100.00
31538;BME280;18147;51.952;6.146;2022-09-19T10:12:54;101923.81;;;13.69;100.00
31538;BME280;18147;51.952;6.146;2022-09-19T10:15:24;101917.16;;;13.90;100.00
31538;BME280;18147;51.952;6.146;2022-09-19T10:18:16;101923.56;;;14.32;100.00
31538;BME280;18147;51.952;6.146;2022-09-19T10:20:58;101921.25;;;14.40;100.00
31538;BME280;18147;51.952;6.146;2022-09-19T10:23:30;101928.88;;;14.76;100.00
31538;BME280;18147;51.952;6.146;2022-09-19T10:26:05;101923.59;;;14.61;100.00
31538;BME280;18147;51.952;6.146;2022-09-19T10:28:45;101926.19;;;14.76;100.00
31538;BME280;18147;51.952;6.146;2022-09-19T10:31:35;101929.34;;;14.55;100.00
31538;BME280;18147;51.952;6.146;2022-09-19T10:34:27;101927.06;;;14.48;100.00
31538;BME280;18147;51.952;6.146;2022-09-19T10:37:00;101919.69;;;14.66;100.00
31538;BME280;18147;51.952;6.146;2022-09-19T10:39:27;101928.69;;;14.65;100.00
31538;BME280;18147;51.952;6.146;2022-09-19T10:41:54;101917.88;;;15.08;100.00
31538;BME280;18147;51.952;6.146;2022-09-19T10:44:23;101932.56;;;15.17;100.00
31538;BME280;18147;51.952;6.146;2022-09-19T10:46:53;101918.19;;;15.31;100.00
31538;BME280;18147;51.952;6.146;2022-09-19T10:49:33;101912.81;;;15.31;100.00
31538;BME280;18147;51.952;6.146;2022-09-19T10:52:06;101912.69;;;15.59;100.00
31538;BME280;18147;51.952;6.146;2022-09-19T10:54:37;101905.91;;;15.53;100.00
31538;BME280;18147;51.952;6.146;2022-09-19T10:57:38;101907.09;;;15.76;100.00
31538;BME280;18147;51.952;6.146;2022-09-19T11:01:18;101897.31;;;16.01;100.00
31538;BME280;18147;51.952;6.146;2022-09-19T11:03:21;101903.91;;;16.22;100.00
31538;BME280;18147;51.952;6.146;2022-09-19T11:06:17;101907.84;;;15.78;100.00
31538;BME280;18147;51.952;6.146;2022-09-19T11:08:54;101911.22;;;15.41;100.00
31538;BME280;18147;51.952;6.146;2022-09-19T11:11:41;101919.56;;;15.23;100.00
31538;BME280;18147;51.952;6.146;2022-09-19T11:20:08;101927.94;;;15.05;96.54
31538;BME280;18147;51.952;6.146;2022-09-19T11:33:51;101913.66;;;16.62;95.43
31538;BME280;18147;51.952;6.146;2022-09-19T11:48:53;101911.19;;;16.71;82.22
31538;BME280;18147;51.952;6.146;2022-09-19T11:54:05;101915.06;;;16.16;81.44
31538;BME280;18147;51.952;6.146;2022-09-19T11:59:49;101908.38;;;15.84;83.14
31538;BME280;18147;51.952;6.146;2022-09-19T12:05:10;101906.25;;;16.40;81.54
31538;BME280;18147;51.952;6.146;2022-09-19T12:08:21;101893.13;;;16.22;79.19
31538;BME280;18147;51.952;6.146;2022-09-19T12:11:04;101893.00;;;16.49;85.40
31538;BME280;18147;51.952;6.146;2022-09-19T12:16:15;101886.44;;;16.53;80.66
31538;BME280;18147;51.952;6.146;2022-09-19T12:19:03;101896.22;;;16.80;80.71
31538;BME280;18147;51.952;6.146;2022-09-19T12:21:41;101891.03;;;16.51;81.05
31538;BME280;18147;51.952;6.146;2022-09-19T12:24:15;101889.31;;;16.76;78.53
31538;BME280;18147;51.952;6.146;2022-09-19T12:27:04;101885.34;;;17.05;71.08
31538;BME280;18147;51.952;6.146;2022-09-19T12:32:46;101900.97;;;17.13;70.40
31538;BME280;18147;51.952;6.146;2022-09-19T12:35:54;101895.44;;;16.65;69.96
31538;BME280;18147;51.952;6.146;2022-09-19T12:38:45;101897.00;;;16.44;69.92
31538;BME280;18147;51.952;6.146;2022-09-19T12:52:38;101885.16;;;17.32;69.79
31538;BME280;18147;51.952;6.146;2022-09-19T12:55:17;101885.41;;;17.41;69.96
31538;BME280;18147;51.952;6.146;2022-09-19T12:57:51;101882.03;;;17.26;67.41
31538;BME280;18147;51.952;6.146;2022-09-19T13:00:21;101883.81;;;17.14;67.70
31538;BME280;18147;51.952;6.146;2022-09-19T13:02:56;101891.28;;;17.70;66.88
31538;BME280;18147;51.952;6.146;2022-09-19T13:05:33;101891.28;;;17.94;70.56
31538;BME280;18147;51.952;6.146;2022-09-19T13:08:28;101887.09;;;17.90;64.40
31538;BME280;18147;51.952;6.146;2022-09-19T13:11:10;101899.16;;;18.30;68.13
31538;BME280;18147;51.952;6.146;2022-09-19T13:13:49;101901.06;;;17.83;68.46
31538;BME280;18147;51.952;6.146;2022-09-19T13:16:19;101900.38;;;17.45;66.57
31538;BME280;18147;51.952;6.146;2022-09-19T13:18:51;101905.16;;;17.17;67.58
31538;BME280;18147;51.952;6.146;2022-09-19T13:21:37;101901.31;;;17.32;68.70
31538;BME280;18147;51.952;6.146;2022-09-19T13:24:28;101905.22;;;16.92;70.55
31538;BME280;18147;51.952;6.146;2022-09-19T13:26:55;101900.72;;;16.92;73.22
31538;BME280;18147;51.952;6.146;2022-09-19T13:36:59;101918.53;;;17.06;78.11
31538;BME280;18147;51.952;6.146;2022-09-19T13:39:52;101909.66;;;17.17;71.03
31538;BME280;18147;51.952;6.146;2022-09-19T13:42:32;101910.75;;;17.14;71.98
31538;BME280;18147;51.952;6.146;2022-09-19T13:45:06;101919.84;;;17.13;68.45
31538;BME280;18147;51.952;6.146;2022-09-19T13:47:39;101920.97;;;17.22;70.04
31538;BME280;18147;51.952;6.146;2022-09-19T13:52:42;101913.81;;;17.09;69.53
31538;BME280;18147;51.952;6.146;2022-09-19T13:57:38;101917.88;;;16.78;67.04
31538;BME280;18147;51.952;6.146;2022-09-19T14:00:31;101913.34;;;16.53;67.38
31538;BME280;18147;51.952;6.146;2022-09-19T14:03:26;101913.75;;;16.86;68.90
31538;BME280;18147;51.952;6.146;2022-09-19T14:06:19;101903.88;;;16.73;66.20
31538;BME280;18147;51.952;6.146;2022-09-19T14:09:16;101912.56;;;16.90;67.38
31538;BME280;18147;51.952;6.146;2022-09-19T14:11:44;101925.75;;;16.43;68.36
31538;BME280;18147;51.952;6.146;2022-09-19T14:19:49;101919.50;;;15.92;74.22
31538;BME280;18147;51.952;6.146;2022-09-19T14:25:15;101911.41;;;15.92;75.63
31538;BME280;18147;51.952;6.146;2022-09-19T14:27:59;101920.91;;;15.97;76.08
31538;BME280;18147;51.952;6.146;2022-09-19T14:30:43;101908.09;;;16.14;78.18
31538;BME280;18147;51.952;6.146;2022-09-19T14:33:49;101909.69;;;16.03;78.72
31538;BME280;18147;51.952;6.146;2022-09-19T14:39:48;101917.56;;;16.07;76.26
31538;BME280;18147;51.952;6.146;2022-09-19T14:48:04;101910.88;;;15.99;74.07
31538;BME280;18147;51.952;6.146;2022-09-19T14:50:36;101902.28;;;16.20;75.23
31538;BME280;18147;51.952;6.146;2022-09-19T14:53:14;101905.84;;;16.33;75.98
31538;BME280;18147;51.952;6.146;2022-09-19T14:55:48;101904.84;;;15.96;75.16
31538;BME280;18147;51.952;6.146;2022-09-19T14:58:26;101907.75;;;16.05;73.16
31538;BME280;18147;51.952;6.146;2022-09-19T15:01:13;101909.59;;;16.18;73.65
31538;BME280;18147;51.952;6.146;2022-09-19T15:08:53;101917.53;;;15.94;71.70
31538;BME280;18147;51.952;6.146;2022-09-19T15:11:18;101905.94;;;15.93;74.53
31538;BME280;18147;51.952;6.146;2022-09-19T15:13:47;101909.59;;;15.92;71.62
31538;BME280;18147;51.952;6.146;2022-09-19T15:16:13;101912.38;;;16.03;73.83
31538;BME280;18147;51.952;6.146;2022-09-19T15:18:44;101913.03;;;15.94;75.09
31538;BME280;18147;51.952;6.146;2022-09-19T15:21:19;101921.47;;;15.75;73.59
31538;BME280;18147;51.952;6.146;2022-09-19T15:23:46;101925.94;;;15.62;77.43
31538;BME280;18147;51.952;6.146;2022-09-19T15:26:15;101926.56;;;15.53;78.11
31538;BME280;18147;51.952;6.146;2022-09-19T15:29:02;101918.75;;;15.63;79.07
31538;BME280;18147;51.952;6.146;2022-09-19T15:31:31;101923.31;;;15.48;79.92
31538;BME280;18147;51.952;6.146;2022-09-19T15:34:04;101928.34;;;15.40;80.25
31538;BME280;18147;51.952;6.146;2022-09-19T15:36:35;101924.44;;;15.58;81.01
31538;BME280;18147;51.952;6.146;2022-09-19T15:39:03;101932.50;;;15.58;78.88